Flight Track Log - Related Links

Times and Time Zones

All times are in EDT time to prevent confusion due to time zone crossing. See the XA-LFA flight status page for this flight to view local times or setup timezone preferences in your user account.

Time Position Orientation Groundspeed Altitude Reporting Facility
EDT Latitude Longitude Course Direction KTS MPH feet Rate Location/Type
Thu 03:34:55 PM 40.8167 -74.1500 270° West 214 246 1,600  Level New York TRACON
Thu 03:35:55 PM 40.8167 -74.2333 270° West 238 274 2,200 2,945 Climbing New York TRACON
Thu 03:37:40 PM 40.7911 -74.4056 259° West 276 318 9,700 3,145 Climbing New York Center
Thu 03:38:41 PM 40.7650 -74.5083 251° West 290 334 10,900 1,820 Climbing New York Center
Thu 03:39:42 PM 40.7239 -74.6183 244° Southwest 324 373 13,400 2,459 Climbing New York Center
Thu 03:40:00 PM 40.6000 -74.8659 270° West  Level FlightAware Approximate
Thu 03:40:43 PM 40.6853 -74.7200 243° Southwest 339 390 15,900  Level New York Center
Thu 03:41:40 PM 40.6350 -74.8431 242° Southwest 339 390 17,000 1,525 Climbing New York Center
Thu 03:42:41 PM 40.5939 -74.9497 243° Southwest 351 404 18,900 1,820 Climbing New York Center
Thu 03:43:42 PM 40.5422 -75.0558 237° Southwest 351 404 20,700 1,664 Climbing New York Center
Thu 03:44:40 PM 40.4778 -75.1639 232° Southwest 368 423 22,200 1,576 Climbing New York Center
Thu 03:45:40 PM 40.4092 -75.2711 230° Southwest 381 438 23,800 1,377 Climbing New York Center
Thu 03:46:42 PM 40.3381 -75.3836 230° Southwest 391 450 25,000 1,377 Climbing New York Center
Thu 03:47:42 PM 40.2603 -75.5064 230° Southwest 403 464 26,600 1,932 Climbing New York Center
Thu 03:48:40 PM 40.1928 -75.6267 234° Southwest 409 471 28,800 2,269 Climbing New York Center
Thu 03:49:41 PM 40.1336 -75.7447 237° Southwest 409 471 31,100 2,459 Climbing New York Center
Thu 03:50:42 PM 40.0744 -75.8625 237° Southwest 404 465 33,800 2,571 Climbing New York Center
Thu 03:51:40 PM 40.0153 -75.9775 236° Southwest 396 456 36,200 2,188 Climbing New York Center
Thu 03:53:32 PM 39.9164 -76.1758 237° Southwest 383 441 40,000 1,326 Climbing Washington Center
Thu 03:54:32 PM 39.8594 -76.2833 235° Southwest 371 427 40,000  Level Washington Center
Thu 03:55:30 PM 39.8028 -76.3936 236° Southwest 371 427 40,000  Level Washington Center
Thu 03:56:30 PM 39.7456 -76.5036 236° Southwest 371 427 40,000  Level Washington Center
Thu 03:57:31 PM 39.6844 -76.6108 233° Southwest 376 433 40,000  Level Washington Center
Thu 03:58:32 PM 39.6269 -76.7231 236° Southwest 381 438 40,000  Level Washington Center
Thu 03:59:32 PM 39.5761 -76.8219 236° Southwest 381 438 40,000  Level Washington Center
Thu 04:00:29 PM 39.5167 -76.9339 235° Southwest 376 433 40,000  Level Washington Center
Thu 04:01:30 PM 39.4467 -77.0267 226° Southwest 376 433 40,000  Level Washington Center
Thu 04:02:31 PM 39.3686 -77.1111 220° Southwest 370 426 40,000  Level Washington Center
Thu 04:03:32 PM 39.2906 -77.1925 219° Southwest 370 426 40,000  Level Washington Center
Thu 04:04:30 PM 39.2081 -77.2764 218° Southwest 370 426 40,000  Level Washington Center
Thu 04:05:31 PM 39.1317 -77.3603 220° Southwest 370 426 40,000  Level Washington Center
Thu 04:06:31 PM 39.0428 -77.4517 219° Southwest 370 426 40,000  Level Washington Center
Thu 04:07:32 PM 38.9667 -77.5272 218° Southwest 365 420 40,000  Level Washington Center
Thu 04:08:32 PM 38.8839 -77.6131 219° Southwest 379 436 40,000  Level Washington Center
Thu 04:09:30 PM 38.8053 -77.6933 219° Southwest 379 436 40,000  Level Washington Center
Thu 04:10:30 PM 38.7206 -77.7817 219° Southwest 385 443 40,000  Level Washington Center
Thu 04:11:31 PM 38.6439 -77.8669 221° Southwest 380 437 40,000  Level Washington Center
Thu 04:12:31 PM 38.5942 -77.9478 232° Southwest 375 432 40,000  Level Washington Center
Thu 04:13:32 PM 38.5208 -78.0703 233° Southwest 375 432 40,000  Level Washington Center
Thu 04:14:32 PM 38.4711 -78.1533 233° Southwest 370 426 40,000  Level Washington Center
Thu 04:15:30 PM 38.4128 -78.2547 234° Southwest 369 425 40,000  Level Washington Center
Thu 04:16:31 PM 38.3411 -78.3767 233° Southwest 369 425 40,000  Level Washington Center
Thu 04:17:31 PM 38.2825 -78.4803 234° Southwest 369 425 40,000  Level Washington Center
Thu 04:18:32 PM 38.2258 -78.5786 234° Southwest 367 422 40,000  Level Washington Center
Thu 04:19:29 PM 38.1692 -78.6714 232° Southwest 362 417 40,000  Level Washington Center
Thu 04:20:30 PM 38.1083 -78.7717 232° Southwest 362 417 40,000  Level Washington Center
Thu 04:21:32 PM 38.0492 -78.8719 233° Southwest 362 417 40,000  Level Washington Center
Thu 04:22:31 PM 37.9814 -78.9825 232° Southwest 362 417 40,000  Level Washington Center
Thu 04:23:32 PM 37.9203 -79.0822 232° Southwest 362 417 40,000  Level Washington Center
Thu 04:24:32 PM 37.8650 -79.1903 237° Southwest 362 417 40,000  Level Washington Center
Thu 04:25:29 PM 37.8094 -79.2981 237° Southwest 362 417 40,000  Level Washington Center
Thu 04:26:31 PM 37.7625 -79.3981 239° Southwest 367 422 40,000  Level Washington Center
Thu 04:27:32 PM 37.6981 -79.5183 236° Southwest 372 428 40,000  Level Washington Center
Thu 04:28:30 PM 37.6422 -79.6281 237° Southwest 378 435 40,000  Level Washington Center
Thu 04:29:31 PM 37.5886 -79.7353 238° Southwest 383 441 40,000  Level Washington Center
Thu 04:30:31 PM 37.5322 -79.8553 239° Southwest 376 433 40,000  Level Washington Center
Thu 04:31:32 PM 37.4808 -79.9519 236° Southwest 394 453 40,000  Level Washington Center
Thu 04:33:12 PM 37.3769 -80.1503 237° Southwest 387 445 40,000  Level Atlanta Center
Thu 04:34:12 PM 37.3258 -80.2494 237° Southwest 382 440 40,000  Level Atlanta Center
Thu 04:35:12 PM 37.2689 -80.3617 238° Southwest 387 445 40,000  Level Atlanta Center
Thu 04:36:12 PM 37.2117 -80.4686 236° Southwest 387 445 40,000  Level Atlanta Center
Thu 04:37:12 PM 37.1544 -80.5806 237° Southwest 382 440 40,000  Level Atlanta Center
Thu 04:38:12 PM 37.0911 -80.7031 237° Southwest 377 434 40,000  Level Atlanta Center
Thu 04:39:12 PM 37.0461 -80.8194 244° Southwest 377 434 40,000  Level Atlanta Center
Thu 04:40:12 PM 37.0014 -80.9408 245° Southwest 377 434 40,000 200 Level Atlanta Center
Thu 04:41:12 PM 36.9606 -81.0619 247° West 382 440 40,400 700 Climbing Atlanta Center
Thu 04:42:12 PM 36.9214 -81.1672 245° Southwest 382 440 41,400 950 Climbing Atlanta Center
Thu 04:43:12 PM 36.8803 -81.2856 247° West 382 440 42,300 750 Climbing Atlanta Center
Thu 04:44:12 PM 36.8389 -81.3983 245° Southwest 372 428 42,900 350 Climbing Atlanta Center
Thu 04:45:12 PM 36.7978 -81.5164 247° West 372 428 43,000 50 Climbing Atlanta Center
Thu 04:46:12 PM 36.7583 -81.6292 246° West 366 421 43,000  Level Atlanta Center
Thu 04:47:12 PM 36.7167 -81.7494 247° West 366 421 43,000  Level Atlanta Center
Thu 04:48:12 PM 36.6731 -81.8647 245° Southwest 366 421 43,000  Level Atlanta Center
Thu 04:49:12 PM 36.6292 -81.9822 245° Southwest 366 421 43,000  Level Atlanta Center
Thu 04:50:12 PM 36.5872 -82.0997 246° West 366 421 43,000  Level Atlanta Center
Thu 04:51:12 PM 36.5411 -82.2169 244° Southwest 371 427 43,000  Level Atlanta Center
Thu 04:52:12 PM 36.4931 -82.3472 245° Southwest 376 433 43,000  Level Atlanta Center
Thu 04:53:12 PM 36.4486 -82.4644 245° Southwest 376 433 43,000  Level Atlanta Center
Thu 04:54:12 PM 36.4042 -82.5839 245° Southwest 383 441 43,000  Level Atlanta Center
Thu 04:55:12 PM 36.3575 -82.7058 245° Southwest 383 441 43,000  Level Atlanta Center
Thu 04:56:12 PM 36.3150 -82.8225 246° West 383 441 43,000  Level Atlanta Center
Thu 04:57:12 PM 36.2681 -82.9417 244° Southwest 383 441 43,000  Level Atlanta Center
Thu 04:58:12 PM 36.2253 -83.0606 246° West 383 441 43,000  Level Atlanta Center
Thu 04:59:12 PM 36.1803 -83.1769 244° Southwest 383 441 43,000  Level Atlanta Center
Thu 05:00:12 PM 36.1333 -83.2983 244° Southwest 383 441 43,000  Level Atlanta Center
Thu 05:01:12 PM 36.0881 -83.4144 244° Southwest 383 441 43,000  Level Atlanta Center
Thu 05:02:12 PM 36.0428 -83.5381 246° West 388 447 43,000  Level Atlanta Center
Thu 05:03:12 PM 36.0056 -83.6408 246° West 382 440 43,000  Level Atlanta Center
Thu 05:04:12 PM 35.9578 -83.7592 244° Southwest 382 440 43,000  Level Atlanta Center
Thu 05:05:12 PM 35.9100 -83.8797 244° Southwest 382 440 43,000  Level Atlanta Center
Thu 05:06:12 PM 35.8414 -83.9825 231° Southwest 388 447 43,000  Level Atlanta Center
Thu 05:07:12 PM 35.7706 -84.0797 228° Southwest 388 447 43,000  Level Atlanta Center
Thu 05:08:12 PM 35.6953 -84.1897 230° Southwest 388 447 43,000  Level Atlanta Center
Thu 05:09:12 PM 35.6219 -84.2867 227° Southwest 388 447 43,000  Level Atlanta Center
Thu 05:10:12 PM 35.5508 -84.3858 229° Southwest 388 447 43,000  Level Atlanta Center
Thu 05:11:12 PM 35.4775 -84.4850 228° Southwest 388 447 43,000  Level Atlanta Center
Thu 05:12:12 PM 35.4061 -84.5839 228° Southwest 388 447 43,000  Level Atlanta Center
Thu 05:13:12 PM 35.3347 -84.6853 229° Southwest 388 447 43,000  Level Atlanta Center
Thu 05:14:12 PM 35.2633 -84.7842 229° Southwest 388 447 43,000  Level Atlanta Center
Thu 05:15:12 PM 35.1917 -84.8800 228° Southwest 388 447 43,000  Level Atlanta Center
Thu 05:16:12 PM 35.1200 -84.9808 229° Southwest 388 447 43,000  Level Atlanta Center
Thu 05:17:12 PM 35.0483 -85.0764 228° Southwest 388 447 43,000  Level Atlanta Center
Thu 05:18:12 PM 34.9786 -85.1744 229° Southwest 383 441 43,000  Level Atlanta Center
Thu 05:19:12 PM 34.9047 -85.2697 227° Southwest 383 441 43,000  Level Atlanta Center
Thu 05:20:12 PM 34.8328 -85.3672 228° Southwest 383 441 43,000  Level Atlanta Center
Thu 05:21:12 PM 34.7606 -85.4647 228° Southwest 383 441 43,000  Level Atlanta Center
Thu 05:22:12 PM 34.6906 -85.5622 229° Southwest 383 441 43,000  Level Atlanta Center
Thu 05:23:12 PM 34.6164 -85.6592 227° Southwest 383 441 43,000  Level Atlanta Center
Thu 05:24:12 PM 34.5442 -85.7561 228° Southwest 383 441 43,000  Level Atlanta Center
Thu 05:25:12 PM 34.4803 -85.8406 227° Southwest 383 441 43,000  Level Atlanta Center
Thu 05:26:12 PM 34.4078 -85.9372 228° Southwest 383 441 43,000  Level Atlanta Center
Thu 05:27:12 PM 34.3353 -86.0336 228° Southwest 388 447 43,000  Level Atlanta Center
Thu 05:28:12 PM 34.2608 -86.1300 227° Southwest 388 447 43,000  Level Atlanta Center
Thu 05:29:12 PM 34.1881 -86.2236 227° Southwest 388 447 43,000  Level Atlanta Center
Thu 05:30:12 PM 34.1133 -86.3219 227° Southwest 388 447 43,000  Level Atlanta Center
Thu 05:31:12 PM 34.0383 -86.4203 227° Southwest 388 447 43,000  Level Atlanta Center
Thu 05:32:12 PM 33.9633 -86.5158 227° Southwest 393 452 43,000  Level Atlanta Center
Thu 05:33:12 PM 33.8883 -86.6139 227° Southwest 393 452 43,000  Level Atlanta Center
Thu 05:34:12 PM 33.8133 -86.7117 227° Southwest 393 452 43,000  Level Atlanta Center
Thu 05:35:12 PM 33.7381 -86.8067 226° Southwest 393 452 43,000  Level Atlanta Center
Thu 05:36:12 PM 33.6650 -86.9067 229° Southwest 393 452 43,000  Level Atlanta Center
Thu 05:37:12 PM 33.5936 -87.0089 230° Southwest 398 458 43,000  Level Atlanta Center
Thu 05:38:12 PM 33.5264 -87.1114 232° Southwest 398 458 43,000  Level Atlanta Center
Thu 05:39:12 PM 33.4569 -87.2158 231° Southwest 398 458 43,000  Level Atlanta Center
Thu 05:40:12 PM 33.3875 -87.3203 231° Southwest 398 458 43,000  Level Atlanta Center
Thu 05:41:12 PM 33.3178 -87.4269 232° Southwest 403 464 43,000  Level Atlanta Center
Thu 05:43:08 PM 33.1725 -87.6422 231° Southwest 396 456 43,000  Level Memphis Center
Thu 05:44:08 PM 33.0997 -87.7533 232° Southwest 412 474 43,000  Level Memphis Center
Thu 05:45:08 PM 33.0247 -87.8597 230° Southwest 417 480 43,000  Level Memphis Center
Thu 05:46:08 PM 32.9639 -87.9581 234° Southwest 422 486 43,000  Level Memphis Center
Thu 05:47:08 PM 32.8867 -88.0689 230° Southwest 430 495 43,000  Level Memphis Center
Thu 05:48:08 PM 32.8114 -88.1772 230° Southwest 430 495 43,000  Level Memphis Center
Thu 05:49:08 PM 32.7381 -88.2853 231° Southwest 430 495 43,000  Level Memphis Center
Thu 05:50:08 PM 32.6583 -88.3858 227° Southwest 430 495 43,000  Level Memphis Center
Thu 05:51:08 PM 32.5658 -88.4764 220° Southwest 430 495 43,000  Level Memphis Center
Thu 05:52:08 PM 32.4731 -88.5647 219° Southwest 435 501 43,000  Level Memphis Center
Thu 05:53:08 PM 32.3911 -88.6647 226° Southwest 430 495 43,000  Level Memphis Center
Thu 05:54:08 PM 32.3342 -88.7886 241° Southwest 425 489 43,000  Level Memphis Center
Thu 05:55:08 PM 32.2753 -88.9125 241° Southwest 431 496 43,000  Level Memphis Center
Thu 05:56:08 PM 32.2181 -89.0339 241° Southwest 431 496 43,000  Level Memphis Center
Thu 05:57:08 PM 32.1586 -89.1525 239° Southwest 421 484 43,000  Level Memphis Center
Thu 05:58:08 PM 32.1014 -89.2708 240° Southwest 426 490 43,000  Level Memphis Center
Thu 06:00:09 PM 31.9819 -89.5183 240° Southwest 417 480 43,000  Level Houston Center
Thu 06:01:11 PM 31.9228 -89.6383 240° Southwest 423 487 43,000  Level Houston Center
Thu 06:02:13 PM 31.8647 -89.7581 240° Southwest 422 486 43,000  Level Houston Center
Thu 06:03:15 PM 31.8100 -89.8678 240° Southwest 422 486 43,000  Level Houston Center
Thu 06:04:17 PM 31.7403 -90.0064 239° Southwest 411 473 43,000  Level Houston Center
Thu 06:05:19 PM 31.6831 -90.1231 240° Southwest 412 474 43,000  Level Houston Center
Thu 06:06:22 PM 31.6244 -90.2406 240° Southwest 417 480 43,000  Level Houston Center
Thu 06:07:24 PM 31.5653 -90.3594 240° Southwest 422 486 43,000 -48 Level Houston Center
Thu 06:08:26 PM 31.5056 -90.4786 240° Southwest 424 488 42,900  Descending Houston Center
Thu 06:09:28 PM 31.4353 -90.6203 240° Southwest 422 486 43,000 48 Climbing Houston Center
Thu 06:10:30 PM 31.3750 -90.7394 239° Southwest 425 489 43,000 -48 Level Houston Center
Thu 06:11:32 PM 31.3131 -90.8603 239° Southwest 432 497 42,900  Descending Houston Center
Thu 06:12:34 PM 31.2547 -90.9781 240° Southwest 426 490 43,000  Climbing Houston Center
Thu 06:13:36 PM 31.1928 -91.0975 239° Southwest 428 493 42,900  Descending Houston Center
Thu 06:14:39 PM 31.1219 -91.2383 240° Southwest 425 489 43,000 48 Climbing Houston Center
Thu 06:15:41 PM 31.0592 -91.3592 239° Southwest 433 498 43,000  Level Houston Center
Thu 06:16:43 PM 30.9975 -91.4797 239° Southwest 430 495 43,000  Level Houston Center
Thu 06:17:45 PM 30.9358 -91.5972 239° Southwest 425 489 43,000  Level Houston Center
Thu 06:18:47 PM 30.8733 -91.7172 239° Southwest 430 495 43,000  Level Houston Center
Thu 06:19:49 PM 30.8108 -91.8367 239° Southwest 431 496 43,000  Level Houston Center
Thu 06:20:51 PM 30.7372 -91.9792 239° Southwest 428 493 43,000  Level Houston Center
Thu 06:22:00 PM 30.6684 -92.1004 237° Southwest  Level FlightAware Approximate
Thu 06:22:56 PM 30.6136 -92.2147 237° Southwest 424 488 43,000  Level Houston Center
Thu 06:23:58 PM 30.5514 -92.3333 239° Southwest 429 494 43,000  Level Houston Center
Thu 06:25:00 PM 30.4892 -92.4511 239° Southwest 428 493 43,000  Level Houston Center
Thu 06:26:02 PM 30.4289 -92.5644 238° Southwest 424 488 43,000 -48 Level Houston Center
Thu 06:27:04 PM 30.3544 -92.7047 238° Southwest 426 490 42,900  Descending Houston Center
Thu 06:28:06 PM 30.2933 -92.8189 238° Southwest 418 481 43,000 48 Climbing Houston Center
Thu 06:29:08 PM 30.2314 -92.9372 239° Southwest 427 491 43,000  Level Houston Center
Thu 06:30:10 PM 30.1686 -93.0528 238° Southwest 424 488 43,000  Level Houston Center
Thu 06:31:13 PM 30.1111 -93.1731 241° Southwest 425 489 43,000 -48 Level Houston Center
Thu 06:32:15 PM 30.0600 -93.2997 245° Southwest 430 495 42,900  Descending Houston Center
Thu 06:33:17 PM 30.0075 -93.4250 244° Southwest 430 495 43,000  Climbing Houston Center
Thu 06:34:19 PM 29.9447 -93.5753 244° Southwest 430 495 42,900 -48 Descending Houston Center
Thu 06:35:21 PM 29.8936 -93.6989 245° Southwest 426 490 42,900 48 Level Houston Center
Thu 06:36:23 PM 29.8428 -93.8222 245° Southwest 426 490 43,000  Climbing Houston Center
Thu 06:37:25 PM 29.7903 -93.9469 244° Southwest 429 494 42,900 -48 Descending Houston Center
Thu 06:38:27 PM 29.7378 -94.0697 244° Southwest 428 493 42,900 48 Level Houston Center
Thu 06:39:29 PM 29.6825 -94.2025 244° Southwest 427 491 43,000 48 Climbing Houston Center
Thu 06:40:31 PM 29.6303 -94.3239 244° Southwest 424 488 43,000  Level Houston Center
Thu 06:41:33 PM 29.5772 -94.4492 244° Southwest 432 497 43,000  Level Houston Center
Thu 06:42:36 PM 29.5236 -94.5722 243° Southwest 433 498 43,000  Level Houston Center
Thu 06:43:37 PM 29.4703 -94.6978 244° Southwest 437 503 43,000  Level Houston Center
Thu 06:44:39 PM 29.4033 -94.8464 243° Southwest 435 501 43,000  Level Houston Center
Thu 06:45:41 PM 29.3497 -94.9714 244° Southwest 433 498 43,000  Level Houston Center
Thu 06:46:43 PM 29.2958 -95.0961 244° Southwest 433 498 43,000  Level Houston Center
Thu 06:47:45 PM 29.2411 -95.2197 243° Southwest 432 497 43,000  Level Houston Center
Thu 06:48:47 PM 29.1650 -95.3275 231° Southwest 434 499 43,000  Level Houston Center
Thu 06:49:48 PM 29.0731 -95.4200 221° Southwest 438 504 43,000  Level Houston Center
Thu 06:50:50 PM 28.9789 -95.5089 220° Southwest 440 506 43,000  Level Houston Center
Thu 06:51:52 PM 28.8853 -95.5972 220° Southwest 437 503 43,000  Level Houston Center
Thu 06:52:54 PM 28.7731 -95.7042 220° Southwest 439 505 43,000  Level Houston Center
Thu 06:53:56 PM 28.6794 -95.7925 220° Southwest 437 503 43,000  Level Houston Center
Thu 06:54:58 PM 28.5856 -95.8817 220° Southwest 438 504 43,000  Level Houston Center
Thu 06:55:59 PM 28.4839 -95.9767 219° Southwest 436 502 43,000  Level Houston Center
Thu 06:57:01 PM 28.3894 -96.0653 220° Southwest 437 503 43,000  Level Houston Center
Thu 06:58:03 PM 28.2961 -96.1533 220° Southwest 437 503 43,000  Level Houston Center
Thu 06:59:05 PM 28.2022 -96.2419 220° Southwest 437 503 43,000  Level Houston Center
Thu 07:00:07 PM 28.1067 -96.3300 219° Southwest 440 506 43,000  Level Houston Center
Thu 07:01:09 PM 28.0125 -96.4189 220° Southwest 440 506 43,000  Level Houston Center
Thu 07:02:11 PM 27.9172 -96.5069 219° Southwest 441 507 43,000  Level Houston Center
Thu 07:03:12 PM 27.8025 -96.6100 218° Southwest 440 506 43,000  Level Houston Center
Thu 07:04:14 PM 27.7067 -96.7003 220° Southwest 442 509 43,000  Level Houston Center
Thu 07:05:16 PM 27.6108 -96.7883 219° Southwest 443 510 43,000  Level Houston Center
Thu 07:06:18 PM 27.5147 -96.8775 219° Southwest 445 512 43,000  Level Houston Center
Thu 07:07:20 PM 27.4194 -96.9633 219° Southwest 444 511 43,000  Level Houston Center
Thu 07:08:22 PM 27.3217 -97.0508 218° Southwest 445 512 43,000  Level Houston Center
Thu 07:09:24 PM 27.2064 -97.1550 219° Southwest 445 512 43,000  Level Houston Center
Thu 07:10:26 PM 27.1128 -97.2419 220° Southwest 442 509 43,000  Level Houston Center
Thu 07:11:27 PM 27.0175 -97.3278 219° Southwest 440 506 43,000  Level Houston Center
Thu 07:12:29 PM 26.9144 -97.4231 220° Southwest 434 499 43,000  Level Houston Center
Thu 07:13:31 PM 26.8203 -97.5092 219° Southwest 437 503 43,000  Level Houston Center
Thu 07:14:33 PM 26.7328 -97.5864 218° Southwest 429 494 43,000  Level Houston Center
Thu 07:15:35 PM 26.6247 -97.6858 219° Southwest 449 517 43,000  Level Houston Center
Thu 07:16:37 PM 26.5317 -97.7700 219° Southwest 415 478 43,000  Level Houston Center
Thu 07:17:39 PM 26.4297 -97.8608 219° Southwest 437 503 43,000  Level Houston Center
Thu 07:18:41 PM 26.3353 -97.9456 219° Southwest 438 504 43,000 -532 Level Houston Center
Thu 07:19:43 PM 26.2322 -98.0364 218° Southwest 440 506 41,900 -1,548 Descending Houston Center
Thu 07:20:45 PM 26.1375 -98.1203 218° Southwest 437 503 39,800 -2,032 Descending Houston Center
Thu 07:22:00 PM 26.0186 -98.1981 222° Southwest  Level FlightAware Approximate
Thu 07:29:00 PM 25.9008 -99.0327 261° West  Level FlightAware Approximate
Thu 07:30:00 PM 25.8843 -99.1530 261° West  Level FlightAware Approximate
Thu 07:31:00 PM 25.8676 -99.2733 261° West  Level FlightAware Approximate
Thu 07:32:00 PM 25.8509 -99.3935 261° West  Level FlightAware Approximate
Thu 07:33:00 PM 25.8471 -99.5147 257° West  Level FlightAware Approximate
Thu 07:34:00 PM 25.8261 -99.6341 261° West  Level FlightAware Approximate
Thu 07:35:00 PM 25.8090 -99.7542 261° West  Level FlightAware Approximate
Thu 07:36:00 PM 25.7947 -99.8748 264° West  Level FlightAware Approximate
Thu 07:37:00 PM 25.7837 -99.9958 264° West  Level FlightAware Approximate
Thu 07:38:00 PM 25.7747 -100.1108 310° West  Level FlightAware Approximate
Thu 07:39:00 PM 25.8411 -100.2073 304° West  Level FlightAware Approximate
Thu 07:40:00 PM 25.8656 -100.2372 304° West  Level Estimated
Thu 07:41:00 PM 25.8656 -100.2372 304° West  Level Estimated
Thu 07:42:00 PM 25.8656 -100.2372 304° West  Level Estimated
Thu 07:43:00 PM 25.8656 -100.2372 304° West  Level Estimated
Thu 07:44:00 PM 25.8656 -100.2372 304° West  Level Estimated
Thu 07:45:00 PM 25.8656 -100.2372 304° West  Level Estimated
Thu 07:46:00 PM 25.8656 -100.2372 304° West  Level Estimated
Thu 07:47:00 PM 25.8656 -100.2372 304° West  Level Estimated
Thu 07:48:00 PM 25.8656 -100.2372 304° West  Level Estimated
Thu 07:49:00 PM 25.8656 -100.2372 304° West  Level Estimated
Thu 07:50:00 PM 25.8656 -100.2372 304° West  Level Estimated
Thu 07:51:00 PM 25.8656 -100.2372 304° West  Level Estimated
Thu 07:52:00 PM 25.8656 -100.2372 304° West  Level Estimated
Thu 07:53:00 PM 25.8656 -100.2372 304° West  Level Estimated
Thu 07:54:00 PM 25.8656 -100.2372 304° West  Level Estimated
Thu 07:55:00 PM 25.8656 -100.2372 304° West  Level Estimated
Thu 07:56:00 PM 25.8656 -100.2372 304° West  Level Estimated
Thu 07:57:00 PM 25.8656 -100.2372 304° West  Level Estimated
Thu 07:58:00 PM 25.8656 -100.2372 304° West  Level Estimated
Thu 07:59:00 PM 25.8656 -100.2372 304° West  Level Estimated

Login

Don't have an account? Register now (free) for customized features, flight alerts, and more!